Time Latitude Longitude Accuracy (66% radius in meters) Altitude (meters) Speed (km/hour) Bearing (degrees) Battery (%) GPS flag
06:48:20 57.203893 60.118239 0 0 0 0 1 delete
06:48:16 57.203890 60.118222 0 0 0 0 1 delete
06:48:12 57.203912 60.118166 0 0 0 0 1 delete
06:48:08 57.203987 60.118049 0 0 0 0 1 delete
06:48:04 57.204049 60.117916 0 0 0 0 1 delete
06:48:00 57.204135 60.117772 0 0 0 0 1 delete
06:47:56 57.204258 60.117643 0 0 0 0 1 delete
06:47:51 57.204388 60.117491 0 0 0 0 1 delete
06:47:46 57.204530 60.117383 0 0 0 0 1 delete
06:47:41 57.204722 60.117417 0 0 0 0 1 delete
06:47:36 57.204901 60.117512 0 0 0 0 1 delete
06:47:31 57.205062 60.117575 0 0 0 0 1 delete
06:47:25 57.205141 60.117669 0 0 0 0 1 delete
06:47:23 57.205144 60.117641 0 0 0 0 1 delete
06:47:18 57.205157 60.117479 0 0 0 0 1 delete
06:47:12 57.205175 60.117321 0 0 0 0 1 delete
06:47:11 57.205181 60.117313 0 0 0 0 1 delete
06:47:06 57.205243 60.117242 0 0 0 0 1 delete
06:47:03 57.205286 60.117200 0 0 0 0 1 delete
06:47:02 57.205296 60.117173 0 0 0 0 1 delete
06:46:58 57.205384 60.117085 0 0 0 0 1 delete
06:46:54 57.205508 60.117001 0 0 0 0 1 delete
06:46:49 57.205769 60.116910 0 0 0 0 1 delete
06:46:46 57.205975 60.116920 0 0 0 0 1 delete
06:46:42 57.206189 60.116963 0 0 0 0 1 delete
06:46:38 57.206349 60.117063 0 0 0 0 1 delete
06:46:33 57.206513 60.117130 0 0 0 0 1 delete
06:46:28 57.206605 60.117129 0 0 0 0 1 delete
06:46:26 57.206611 60.117106 0 0 0 0 1 delete
06:46:22 57.206611 60.117045 0 0 0 0 1 delete
06:46:16 57.206593 60.116970 0 0 0 0 1 delete
06:46:12 57.206556 60.116927 0 0 0 0 1 delete
06:46:10 57.206533 60.116920 0 0 0 0 1 delete
06:46:05 57.206486 60.116863 0 0 0 0 1 delete
06:46:00 57.206480 60.116841 0 0 0 0 1 delete
06:45:55 57.206463 60.116816 0 0 0 0 1 delete
06:45:51 57.206434 60.116777 0 0 0 0 1 delete
06:45:46 57.206449 60.116695 0 0 0 0 1 delete
06:45:41 57.206454 60.116639 0 0 0 0 1 delete
06:45:36 57.206456 60.116550 0 0 0 0 1 delete
06:45:32 57.206473 60.116475 0 0 0 0 1 delete
06:45:28 57.206477 60.116407 0 0 0 0 1 delete
06:45:23 57.206480 60.116339 0 0 0 0 1 delete
06:45:18 57.206487 60.116241 0 0 0 0 1 delete
06:45:14 57.206506 60.116180 0 0 0 0 1 delete
06:45:13 57.206529 60.116168 0 0 0 0 1 delete
06:45:09 57.206614 60.116183 0 0 0 0 1 delete
06:45:03 57.206676 60.116198 0 0 0 0 1 delete
06:45:02 57.206691 60.116199 0 0 0 0 1 delete
06:44:57 57.206832 60.116298 0 0 0 0 1 delete